Terminal Aerodrome Forecast
Issued by NWS

Home | Current Version | Previous Version | Text Only | Print | Product List | Glossary On
Versions: 1 2 3 4 5 6 7 8 9 10 11 12 13 14 15 16 17 18 19 20 21 22 23 24 25 26 27 28 29 30 31 32 33 34 35 36 37 38 39 40 41 42 43 44 45 46 47 48 49 50
000
FTUS46 KEKA 242353
TAFACV
TAF
KACV 242353Z 2500/2524 32011KT 6SM HZ SCT007
      TEMPO 2500/2502 BKN007
     FM250200 31005KT 6SM HZ BKN006
     FM250500 16004KT 6SM BR OVC004
     FM250800 16003KT 4SM BR OVC003
     FM251200 VRB03KT 2SM BR OVC002
     FM251800 29006KT 6SM HZ BKN005
     FM252100 29008KT P6SM SCT010=

USA.gov is the U.S. government's official web portal to all federal, state and local government web resources and services.